sensor_id;sensor_type;location;lat;lon;timestamp;P1;durP1;ratioP1;P2;durP2;ratioP2
58657;SDS011;44428;45.630;13.786;2023-02-01T00:01:38;22.43;;;11.63;;
58657;SDS011;44428;45.630;13.786;2023-02-01T00:04:04;22.27;;;11.40;;
58657;SDS011;44428;45.630;13.786;2023-02-01T00:06:30;23.70;;;10.47;;
58657;SDS011;44428;45.630;13.786;2023-02-01T00:08:55;20.93;;;11.13;;
58657;SDS011;44428;45.630;13.786;2023-02-01T00:11:22;23.30;;;11.73;;
58657;SDS011;44428;45.630;13.786;2023-02-01T00:13:49;22.50;;;12.07;;
58657;SDS011;44428;45.630;13.786;2023-02-01T00:16:17;20.33;;;11.50;;
58657;SDS011;44428;45.630;13.786;2023-02-01T00:18:48;23.60;;;10.33;;
58657;SDS011;44428;45.630;13.786;2023-02-01T00:21:15;19.20;;;11.13;;
58657;SDS011;44428;45.630;13.786;2023-02-01T00:23:42;21.73;;;10.70;;
58657;SDS011;44428;45.630;13.786;2023-02-01T00:26:16;20.67;;;11.23;;
58657;SDS011;44428;45.630;13.786;2023-02-01T00:28:43;18.97;;;10.27;;
58657;SDS011;44428;45.630;13.786;2023-02-01T00:31:09;22.23;;;10.90;;
58657;SDS011;44428;45.630;13.786;2023-02-01T00:33:35;23.87;;;10.63;;
58657;SDS011;44428;45.630;13.786;2023-02-01T00:36:05;18.43;;;9.40;;
58657;SDS011;44428;45.630;13.786;2023-02-01T00:38:33;18.13;;;9.67;;
58657;SDS011;44428;45.630;13.786;2023-02-01T00:41:02;17.50;;;9.20;;
58657;SDS011;44428;45.630;13.786;2023-02-01T00:43:32;17.47;;;10.67;;
58657;SDS011;44428;45.630;13.786;2023-02-01T00:45:58;20.47;;;9.53;;
58657;SDS011;44428;45.630;13.786;2023-02-01T00:48:25;21.33;;;10.00;;
58657;SDS011;44428;45.630;13.786;2023-02-01T00:50:51;16.47;;;8.87;;
58657;SDS011;44428;45.630;13.786;2023-02-01T00:53:16;18.67;;;8.57;;
58657;SDS011;44428;45.630;13.786;2023-02-01T00:55:48;18.40;;;8.73;;
58657;SDS011;44428;45.630;13.786;2023-02-01T00:58:14;19.70;;;8.87;;
58657;SDS011;44428;45.630;13.786;2023-02-01T01:00:40;19.67;;;9.47;;
58657;SDS011;44428;45.630;13.786;2023-02-01T01:03:05;20.90;;;10.40;;
58657;SDS011;44428;45.630;13.786;2023-02-01T01:05:47;21.73;;;10.53;;
58657;SDS011;44428;45.630;13.786;2023-02-01T01:08:16;20.23;;;9.20;;
58657;SDS011;44428;45.630;13.786;2023-02-01T01:10:42;22.43;;;9.17;;
58657;SDS011;44428;45.630;13.786;2023-02-01T01:13:08;19.93;;;9.27;;
58657;SDS011;44428;45.630;13.786;2023-02-01T01:15:38;19.90;;;8.77;;
58657;SDS011;44428;45.630;13.786;2023-02-01T01:18:04;21.85;;;9.52;;
58657;SDS011;44428;45.630;13.786;2023-02-01T01:20:33;19.47;;;9.83;;
58657;SDS011;44428;45.630;13.786;2023-02-01T01:22:59;18.70;;;9.00;;
58657;SDS011;44428;45.630;13.786;2023-02-01T01:25:25;17.60;;;8.47;;
58657;SDS011;44428;45.630;13.786;2023-02-01T01:27:51;18.93;;;8.70;;
58657;SDS011;44428;45.630;13.786;2023-02-01T01:30:17;18.77;;;8.53;;
58657;SDS011;44428;45.630;13.786;2023-02-01T01:32:43;16.47;;;8.07;;
58657;SDS011;44428;45.630;13.786;2023-02-01T01:35:09;20.53;;;8.20;;
58657;SDS011;44428;45.630;13.786;2023-02-01T01:37:36;18.10;;;8.80;;
58657;SDS011;44428;45.630;13.786;2023-02-01T01:40:02;18.93;;;8.17;;
58657;SDS011;44428;45.630;13.786;2023-02-01T01:42:29;16.30;;;8.33;;
58657;SDS011;44428;45.630;13.786;2023-02-01T01:44:59;17.53;;;7.90;;
58657;SDS011;44428;45.630;13.786;2023-02-01T01:47:37;15.57;;;7.03;;
58657;SDS011;44428;45.630;13.786;2023-02-01T01:50:10;16.17;;;8.52;;
58657;SDS011;44428;45.630;13.786;2023-02-01T01:52:42;16.53;;;7.40;;
58657;SDS011;44428;45.630;13.786;2023-02-01T01:55:12;18.93;;;8.27;;
58657;SDS011;44428;45.630;13.786;2023-02-01T01:57:41;18.80;;;7.00;;
58657;SDS011;44428;45.630;13.786;2023-02-01T02:00:10;16.67;;;6.73;;
58657;SDS011;44428;45.630;13.786;2023-02-01T02:02:43;19.73;;;8.03;;
58657;SDS011;44428;45.630;13.786;2023-02-01T02:05:12;17.67;;;6.87;;
58657;SDS011;44428;45.630;13.786;2023-02-01T02:07:40;15.50;;;7.43;;
58657;SDS011;44428;45.630;13.786;2023-02-01T02:10:11;16.67;;;8.03;;
58657;SDS011;44428;45.630;13.786;2023-02-01T02:12:38;18.93;;;7.73;;
58657;SDS011;44428;45.630;13.786;2023-02-01T02:15:06;14.20;;;7.00;;
58657;SDS011;44428;45.630;13.786;2023-02-01T02:37:04;15.40;;;7.07;;
58657;SDS011;44428;45.630;13.786;2023-02-01T02:40:22;15.37;;;6.60;;
58657;SDS011;44428;45.630;13.786;2023-02-01T02:48:18;17.50;;;7.37;;
58657;SDS011;44428;45.630;13.786;2023-02-01T02:50:55;12.87;;;6.17;;
58657;SDS011;44428;45.630;13.786;2023-02-01T02:53:53;15.60;;;6.53;;
58657;SDS011;44428;45.630;13.786;2023-02-01T02:56:44;13.53;;;6.60;;
58657;SDS011;44428;45.630;13.786;2023-02-01T02:59:30;17.80;;;7.27;;
58657;SDS011;44428;45.630;13.786;2023-02-01T03:02:16;20.13;;;7.47;;
58657;SDS011;44428;45.630;13.786;2023-02-01T03:05:02;16.93;;;7.57;;
58657;SDS011;44428;45.630;13.786;2023-02-01T03:13:53;16.70;;;7.63;;
58657;SDS011;44428;45.630;13.786;2023-02-01T03:21:32;20.43;;;8.10;;
58657;SDS011;44428;45.630;13.786;2023-02-01T03:24:17;17.20;;;8.90;;
58657;SDS011;44428;45.630;13.786;2023-02-01T03:26:48;21.05;;;9.13;;
58657;SDS011;44428;45.630;13.786;2023-02-01T03:29:27;22.37;;;8.93;;
58657;SDS011;44428;45.630;13.786;2023-02-01T03:31:59;21.23;;;8.40;;
58657;SDS011;44428;45.630;13.786;2023-02-01T03:34:25;20.70;;;10.37;;
58657;SDS011;44428;45.630;13.786;2023-02-01T03:36:58;18.60;;;9.60;;
58657;SDS011;44428;45.630;13.786;2023-02-01T03:39:32;19.90;;;9.43;;
58657;SDS011;44428;45.630;13.786;2023-02-01T03:42:03;19.80;;;9.80;;
58657;SDS011;44428;45.630;13.786;2023-02-01T03:44:34;22.23;;;10.75;;
58657;SDS011;44428;45.630;13.786;2023-02-01T03:47:08;20.50;;;9.93;;
58657;SDS011;44428;45.630;13.786;2023-02-01T03:49:43;22.03;;;9.47;;
58657;SDS011;44428;45.630;13.786;2023-02-01T03:52:17;20.80;;;10.47;;
58657;SDS011;44428;45.630;13.786;2023-02-01T03:54:48;22.87;;;10.87;;
58657;SDS011;44428;45.630;13.786;2023-02-01T03:57:16;25.83;;;12.00;;
58657;SDS011;44428;45.630;13.786;2023-02-01T03:59:47;23.90;;;11.37;;
58657;SDS011;44428;45.630;13.786;2023-02-01T04:02:13;18.63;;;10.57;;
58657;SDS011;44428;45.630;13.786;2023-02-01T04:04:38;18.73;;;10.20;;
58657;SDS011;44428;45.630;13.786;2023-02-01T04:07:05;18.20;;;10.20;;
58657;SDS011;44428;45.630;13.786;2023-02-01T04:09:30;24.77;;;11.03;;
58657;SDS011;44428;45.630;13.786;2023-02-01T04:11:56;25.07;;;12.10;;
58657;SDS011;44428;45.630;13.786;2023-02-01T04:14:22;20.83;;;11.23;;
58657;SDS011;44428;45.630;13.786;2023-02-01T04:16:47;24.47;;;12.27;;
58657;SDS011;44428;45.630;13.786;2023-02-01T04:19:13;24.47;;;12.13;;
58657;SDS011;44428;45.630;13.786;2023-02-01T04:21:39;22.83;;;11.67;;
58657;SDS011;44428;45.630;13.786;2023-02-01T04:24:05;26.33;;;12.67;;
58657;SDS011;44428;45.630;13.786;2023-02-01T04:26:31;26.40;;;13.00;;
58657;SDS011;44428;45.630;13.786;2023-02-01T04:28:56;25.63;;;15.37;;
58657;SDS011;44428;45.630;13.786;2023-02-01T04:31:22;28.03;;;14.63;;
58657;SDS011;44428;45.630;13.786;2023-02-01T04:33:51;26.45;;;13.13;;
58657;SDS011;44428;45.630;13.786;2023-02-01T04:36:18;28.50;;;15.10;;
58657;SDS011;44428;45.630;13.786;2023-02-01T04:38:48;29.52;;;15.85;;
58657;SDS011;44428;45.630;13.786;2023-02-01T04:41:15;22.40;;;13.27;;
58657;SDS011;44428;45.630;13.786;2023-02-01T04:43:46;25.55;;;13.30;;
58657;SDS011;44428;45.630;13.786;2023-02-01T04:46:13;25.90;;;13.90;;
58657;SDS011;44428;45.630;13.786;2023-02-01T04:48:39;28.97;;;14.67;;
58657;SDS011;44428;45.630;13.786;2023-02-01T04:51:05;27.75;;;15.57;;
58657;SDS011;44428;45.630;13.786;2023-02-01T04:53:30;26.80;;;15.85;;
58657;SDS011;44428;45.630;13.786;2023-02-01T04:55:56;29.83;;;17.63;;
58657;SDS011;44428;45.630;13.786;2023-02-01T04:58:22;25.77;;;16.23;;
58657;SDS011;44428;45.630;13.786;2023-02-01T05:00:47;30.25;;;16.38;;
58657;SDS011;44428;45.630;13.786;2023-02-01T05:03:13;27.47;;;16.73;;
58657;SDS011;44428;45.630;13.786;2023-02-01T05:05:39;28.95;;;16.67;;
58657;SDS011;44428;45.630;13.786;2023-02-01T05:08:05;30.38;;;16.90;;
58657;SDS011;44428;45.630;13.786;2023-02-01T05:10:30;25.52;;;15.00;;
58657;SDS011;44428;45.630;13.786;2023-02-01T05:12:56;29.13;;;16.88;;
58657;SDS011;44428;45.630;13.786;2023-02-01T05:15:40;29.60;;;16.42;;
58657;SDS011;44428;45.630;13.786;2023-02-01T05:18:06;31.05;;;16.90;;
58657;SDS011;44428;45.630;13.786;2023-02-01T05:20:32;27.75;;;16.13;;
58657;SDS011;44428;45.630;13.786;2023-02-01T05:22:57;26.13;;;16.53;;
58657;SDS011;44428;45.630;13.786;2023-02-01T05:25:23;26.13;;;15.63;;
58657;SDS011;44428;45.630;13.786;2023-02-01T05:27:49;28.07;;;16.60;;
58657;SDS011;44428;45.630;13.786;2023-02-01T05:30:14;28.90;;;17.10;;
58657;SDS011;44428;45.630;13.786;2023-02-01T05:32:40;29.98;;;17.55;;
58657;SDS011;44428;45.630;13.786;2023-02-01T05:35:06;30.37;;;17.70;;
58657;SDS011;44428;45.630;13.786;2023-02-01T05:37:32;31.23;;;17.37;;
58657;SDS011;44428;45.630;13.786;2023-02-01T05:39:58;27.95;;;16.20;;
58657;SDS011;44428;45.630;13.786;2023-02-01T05:42:24;29.95;;;17.55;;
58657;SDS011;44428;45.630;13.786;2023-02-01T05:44:49;30.55;;;17.58;;
58657;SDS011;44428;45.630;13.786;2023-02-01T05:47:15;28.73;;;16.67;;
58657;SDS011;44428;45.630;13.786;2023-02-01T05:49:41;31.20;;;16.50;;
58657;SDS011;44428;45.630;13.786;2023-02-01T05:52:07;30.87;;;17.53;;
58657;SDS011;44428;45.630;13.786;2023-02-01T05:54:33;31.60;;;18.17;;
58657;SDS011;44428;45.630;13.786;2023-02-01T05:56:58;33.70;;;20.80;;
58657;SDS011;44428;45.630;13.786;2023-02-01T05:59:24;36.47;;;22.43;;
58657;SDS011;44428;45.630;13.786;2023-02-01T06:01:50;34.63;;;20.23;;
58657;SDS011;44428;45.630;13.786;2023-02-01T06:04:15;33.00;;;20.07;;
58657;SDS011;44428;45.630;13.786;2023-02-01T06:06:41;34.83;;;19.37;;
58657;SDS011;44428;45.630;13.786;2023-02-01T06:09:07;39.20;;;19.87;;
58657;SDS011;44428;45.630;13.786;2023-02-01T06:11:33;32.50;;;19.90;;
58657;SDS011;44428;45.630;13.786;2023-02-01T06:13:58;37.53;;;21.23;;
58657;SDS011;44428;45.630;13.786;2023-02-01T06:16:25;34.03;;;19.67;;
58657;SDS011;44428;45.630;13.786;2023-02-01T06:18:51;36.47;;;21.27;;
58657;SDS011;44428;45.630;13.786;2023-02-01T06:21:16;32.07;;;20.20;;
58657;SDS011;44428;45.630;13.786;2023-02-01T06:23:49;34.00;;;21.27;;
58657;SDS011;44428;45.630;13.786;2023-02-01T06:26:18;39.67;;;20.53;;
58657;SDS011;44428;45.630;13.786;2023-02-01T06:28:44;31.00;;;19.83;;
58657;SDS011;44428;45.630;13.786;2023-02-01T06:31:10;37.37;;;22.23;;
58657;SDS011;44428;45.630;13.786;2023-02-01T06:33:36;37.57;;;23.70;;
58657;SDS011;44428;45.630;13.786;2023-02-01T06:36:03;42.23;;;23.13;;
58657;SDS011;44428;45.630;13.786;2023-02-01T06:38:30;46.80;;;26.17;;
58657;SDS011;44428;45.630;13.786;2023-02-01T06:40:56;48.77;;;25.67;;
58657;SDS011;44428;45.630;13.786;2023-02-01T06:43:23;48.97;;;26.23;;
58657;SDS011;44428;45.630;13.786;2023-02-01T06:45:51;53.20;;;26.37;;
58657;SDS011;44428;45.630;13.786;2023-02-01T06:48:17;61.37;;;27.60;;
58657;SDS011;44428;45.630;13.786;2023-02-01T06:50:43;61.35;;;26.67;;
58657;SDS011;44428;45.630;13.786;2023-02-01T06:53:09;46.67;;;26.37;;
58657;SDS011;44428;45.630;13.786;2023-02-01T06:55:35;42.33;;;25.23;;
58657;SDS011;44428;45.630;13.786;2023-02-01T06:58:01;43.73;;;24.27;;
58657;SDS011;44428;45.630;13.786;2023-02-01T07:00:27;42.92;;;24.42;;
58657;SDS011;44428;45.630;13.786;2023-02-01T07:02:54;37.07;;;24.10;;
58657;SDS011;44428;45.630;13.786;2023-02-01T07:05:20;35.50;;;21.90;;
58657;SDS011;44428;45.630;13.786;2023-02-01T07:07:46;38.25;;;22.67;;
58657;SDS011;44428;45.630;13.786;2023-02-01T07:10:12;32.78;;;21.33;;
58657;SDS011;44428;45.630;13.786;2023-02-01T07:12:38;37.63;;;21.63;;
58657;SDS011;44428;45.630;13.786;2023-02-01T07:15:04;39.87;;;22.33;;
58657;SDS011;44428;45.630;13.786;2023-02-01T07:17:30;33.92;;;22.35;;
58657;SDS011;44428;45.630;13.786;2023-02-01T07:19:56;42.80;;;22.38;;
58657;SDS011;44428;45.630;13.786;2023-02-01T07:22:22;40.27;;;22.50;;
58657;SDS011;44428;45.630;13.786;2023-02-01T07:24:48;41.13;;;22.77;;
58657;SDS011;44428;45.630;13.786;2023-02-01T07:27:13;39.70;;;21.40;;
58657;SDS011;44428;45.630;13.786;2023-02-01T07:29:39;39.20;;;20.65;;
58657;SDS011;44428;45.630;13.786;2023-02-01T07:32:04;38.28;;;22.45;;
58657;SDS011;44428;45.630;13.786;2023-02-01T07:34:30;36.03;;;20.63;;
58657;SDS011;44428;45.630;13.786;2023-02-01T07:36:56;35.83;;;21.90;;
58657;SDS011;44428;45.630;13.786;2023-02-01T07:39:22;35.42;;;20.92;;
58657;SDS011;44428;45.630;13.786;2023-02-01T07:41:48;34.92;;;21.40;;
58657;SDS011;44428;45.630;13.786;2023-02-01T07:44:13;39.90;;;21.52;;
58657;SDS011;44428;45.630;13.786;2023-02-01T07:46:39;40.13;;;22.52;;
58657;SDS011;44428;45.630;13.786;2023-02-01T07:49:05;36.92;;;23.80;;
58657;SDS011;44428;45.630;13.786;2023-02-01T07:51:31;38.22;;;23.92;;
58657;SDS011;44428;45.630;13.786;2023-02-01T07:53:57;37.35;;;25.23;;
58657;SDS011;44428;45.630;13.786;2023-02-01T07:56:23;38.08;;;25.42;;
58657;SDS011;44428;45.630;13.786;2023-02-01T07:58:49;35.47;;;24.30;;
58657;SDS011;44428;45.630;13.786;2023-02-01T08:01:16;33.72;;;23.48;;
58657;SDS011;44428;45.630;13.786;2023-02-01T08:03:47;37.95;;;23.58;;
58657;SDS011;44428;45.630;13.786;2023-02-01T08:06:14;41.45;;;23.60;;
58657;SDS011;44428;45.630;13.786;2023-02-01T08:08:39;33.40;;;21.80;;
58657;SDS011;44428;45.630;13.786;2023-02-01T08:11:05;35.08;;;21.98;;
58657;SDS011;44428;45.630;13.786;2023-02-01T08:13:35;32.60;;;21.35;;
58657;SDS011;44428;45.630;13.786;2023-02-01T08:16:02;36.35;;;21.60;;
58657;SDS011;44428;45.630;13.786;2023-02-01T08:18:30;33.60;;;21.20;;
58657;SDS011;44428;45.630;13.786;2023-02-01T08:20:56;38.20;;;21.92;;
58657;SDS011;44428;45.630;13.786;2023-02-01T08:23:22;38.88;;;23.15;;
58657;SDS011;44428;45.630;13.786;2023-02-01T08:25:48;32.28;;;20.55;;
58657;SDS011;44428;45.630;13.786;2023-02-01T08:28:14;30.65;;;18.35;;
58657;SDS011;44428;45.630;13.786;2023-02-01T08:30:40;35.08;;;20.63;;
58657;SDS011;44428;45.630;13.786;2023-02-01T08:33:07;28.73;;;19.08;;
58657;SDS011;44428;45.630;13.786;2023-02-01T08:35:34;30.13;;;19.20;;
58657;SDS011;44428;45.630;13.786;2023-02-01T08:38:00;30.15;;;17.98;;
58657;SDS011;44428;45.630;13.786;2023-02-01T08:40:26;27.40;;;18.42;;
58657;SDS011;44428;45.630;13.786;2023-02-01T08:42:52;28.10;;;17.55;;
58657;SDS011;44428;45.630;13.786;2023-02-01T08:45:18;27.35;;;17.33;;
58657;SDS011;44428;45.630;13.786;2023-02-01T08:47:54;29.58;;;19.40;;
58657;SDS011;44428;45.630;13.786;2023-02-01T08:50:20;31.10;;;18.08;;
58657;SDS011;44428;45.630;13.786;2023-02-01T08:52:46;27.38;;;18.08;;
58657;SDS011;44428;45.630;13.786;2023-02-01T08:55:13;31.83;;;18.40;;
58657;SDS011;44428;45.630;13.786;2023-02-01T08:57:39;32.15;;;18.58;;
58657;SDS011;44428;45.630;13.786;2023-02-01T09:00:06;27.75;;;18.77;;
58657;SDS011;44428;45.630;13.786;2023-02-01T09:02:42;31.73;;;19.20;;
58657;SDS011;44428;45.630;13.786;2023-02-01T09:05:09;27.00;;;17.65;;
58657;SDS011;44428;45.630;13.786;2023-02-01T09:07:36;26.05;;;17.67;;
58657;SDS011;44428;45.630;13.786;2023-02-01T09:10:02;28.45;;;18.73;;
58657;SDS011;44428;45.630;13.786;2023-02-01T09:12:29;28.50;;;18.52;;
58657;SDS011;44428;45.630;13.786;2023-02-01T09:14:56;29.15;;;19.13;;
58657;SDS011;44428;45.630;13.786;2023-02-01T09:17:27;29.75;;;20.10;;
58657;SDS011;44428;45.630;13.786;2023-02-01T09:19:53;37.53;;;21.08;;
58657;SDS011;44428;45.630;13.786;2023-02-01T09:22:19;29.55;;;19.67;;
58657;SDS011;44428;45.630;13.786;2023-02-01T09:24:45;28.08;;;19.58;;
58657;SDS011;44428;45.630;13.786;2023-02-01T09:27:11;26.90;;;19.05;;
58657;SDS011;44428;45.630;13.786;2023-02-01T09:29:37;32.28;;;19.75;;
58657;SDS011;44428;45.630;13.786;2023-02-01T09:32:02;26.90;;;19.73;;
58657;SDS011;44428;45.630;13.786;2023-02-01T09:34:28;25.98;;;18.65;;
58657;SDS011;44428;45.630;13.786;2023-02-01T09:36:54;26.13;;;19.85;;
58657;SDS011;44428;45.630;13.786;2023-02-01T09:39:20;32.35;;;19.77;;
58657;SDS011;44428;45.630;13.786;2023-02-01T09:41:56;25.63;;;19.02;;
58657;SDS011;44428;45.630;13.786;2023-02-01T09:47:22;28.63;;;20.33;;
58657;SDS011;44428;45.630;13.786;2023-02-01T09:52:28;25.05;;;16.60;;
58657;SDS011;44428;45.630;13.786;2023-02-01T09:55:11;28.27;;;18.50;;
58657;SDS011;44428;45.630;13.786;2023-02-01T10:00:43;24.85;;;17.88;;
58657;SDS011;44428;45.630;13.786;2023-02-01T10:03:16;25.02;;;17.80;;
58657;SDS011;44428;45.630;13.786;2023-02-01T10:17:16;25.60;;;17.58;;
58657;SDS011;44428;45.630;13.786;2023-02-01T10:22:42;27.85;;;18.80;;
58657;SDS011;44428;45.630;13.786;2023-02-01T10:27:41;25.67;;;17.77;;
58657;SDS011;44428;45.630;13.786;2023-02-01T10:30:23;27.73;;;18.17;;
58657;SDS011;44428;45.630;13.786;2023-02-01T10:32:59;26.25;;;18.15;;
58657;SDS011;44428;45.630;13.786;2023-02-01T10:35:50;28.75;;;17.63;;
58657;SDS011;44428;45.630;13.786;2023-02-01T10:38:27;26.38;;;17.90;;
58657;SDS011;44428;45.630;13.786;2023-02-01T10:40:57;25.15;;;18.08;;
58657;SDS011;44428;45.630;13.786;2023-02-01T10:43:27;29.83;;;20.13;;
58657;SDS011;44428;45.630;13.786;2023-02-01T10:45:53;35.33;;;22.33;;
58657;SDS011;44428;45.630;13.786;2023-02-01T10:48:18;32.50;;;23.17;;
58657;SDS011;44428;45.630;13.786;2023-02-01T10:50:55;32.95;;;22.13;;
58657;SDS011;44428;45.630;13.786;2023-02-01T10:53:29;30.33;;;22.45;;
58657;SDS011;44428;45.630;13.786;2023-02-01T10:56:24;33.72;;;24.08;;
58657;SDS011;44428;45.630;13.786;2023-02-01T11:01:28;31.48;;;22.40;;
58657;SDS011;44428;45.630;13.786;2023-02-01T11:03:59;44.40;;;25.58;;
58657;SDS011;44428;45.630;13.786;2023-02-01T11:06:30;35.05;;;25.90;;
58657;SDS011;44428;45.630;13.786;2023-02-01T11:16:53;36.17;;;25.20;;
58657;SDS011;44428;45.630;13.786;2023-02-01T11:19:21;36.78;;;25.80;;
58657;SDS011;44428;45.630;13.786;2023-02-01T11:21:50;34.90;;;26.10;;
58657;SDS011;44428;45.630;13.786;2023-02-01T11:24:28;36.92;;;26.50;;
58657;SDS011;44428;45.630;13.786;2023-02-01T11:27:04;37.10;;;25.95;;
58657;SDS011;44428;45.630;13.786;2023-02-01T11:29:38;36.97;;;26.98;;
58657;SDS011;44428;45.630;13.786;2023-02-01T11:32:08;41.78;;;30.27;;
58657;SDS011;44428;45.630;13.786;2023-02-01T11:34:47;41.28;;;28.90;;
58657;SDS011;44428;45.630;13.786;2023-02-01T11:37:26;37.72;;;30.02;;
58657;SDS011;44428;45.630;13.786;2023-02-01T11:39:59;42.28;;;30.40;;
58657;SDS011;44428;45.630;13.786;2023-02-01T11:42:27;46.33;;;33.88;;
58657;SDS011;44428;45.630;13.786;2023-02-01T11:47:43;49.75;;;33.83;;
58657;SDS011;44428;45.630;13.786;2023-02-01T11:50:18;48.38;;;34.63;;
58657;SDS011;44428;45.630;13.786;2023-02-01T11:52:54;49.85;;;34.65;;
58657;SDS011;44428;45.630;13.786;2023-02-01T11:55:34;51.22;;;37.30;;
58657;SDS011;44428;45.630;13.786;2023-02-01T11:58:16;47.95;;;37.28;;
58657;SDS011;44428;45.630;13.786;2023-02-01T12:14:51;50.72;;;37.20;;
58657;SDS011;44428;45.630;13.786;2023-02-01T12:25:58;46.30;;;36.00;;
58657;SDS011;44428;45.630;13.786;2023-02-01T12:31:54;47.92;;;36.65;;
58657;SDS011;44428;45.630;13.786;2023-02-01T12:37:36;52.05;;;37.28;;
58657;SDS011;44428;45.630;13.786;2023-02-01T12:40:36;53.45;;;37.17;;
58657;SDS011;44428;45.630;13.786;2023-02-01T12:45:46;55.13;;;38.67;;
58657;SDS011;44428;45.630;13.786;2023-02-01T12:59:30;54.33;;;40.53;;
58657;SDS011;44428;45.630;13.786;2023-02-01T13:07:51;56.08;;;41.60;;
58657;SDS011;44428;45.630;13.786;2023-02-01T13:15:44;51.90;;;40.30;;
58657;SDS011;44428;45.630;13.786;2023-02-01T13:18:14;52.35;;;41.17;;
58657;SDS011;44428;45.630;13.786;2023-02-01T13:20:58;50.38;;;43.38;;
58657;SDS011;44428;45.630;13.786;2023-02-01T13:23:29;56.75;;;44.30;;
58657;SDS011;44428;45.630;13.786;2023-02-01T13:25:59;58.03;;;46.47;;
58657;SDS011;44428;45.630;13.786;2023-02-01T13:28:31;58.33;;;45.60;;
58657;SDS011;44428;45.630;13.786;2023-02-01T13:31:21;58.53;;;45.95;;
58657;SDS011;44428;45.630;13.786;2023-02-01T13:42:23;68.53;;;52.08;;
58657;SDS011;44428;45.630;13.786;2023-02-01T13:45:03;61.25;;;49.63;;
58657;SDS011;44428;45.630;13.786;2023-02-01T13:47:40;67.18;;;52.78;;
58657;SDS011;44428;45.630;13.786;2023-02-01T13:52:53;66.47;;;50.22;;
58657;SDS011;44428;45.630;13.786;2023-02-01T13:58:44;72.78;;;53.95;;
58657;SDS011;44428;45.630;13.786;2023-02-01T14:01:31;72.75;;;51.72;;
58657;SDS011;44428;45.630;13.786;2023-02-01T14:03:53;76.57;;;56.80;;
58657;SDS011;44428;45.630;13.786;2023-02-01T14:09:12;79.03;;;56.38;;
58657;SDS011;44428;45.630;13.786;2023-02-01T14:11:54;80.18;;;57.35;;
58657;SDS011;44428;45.630;13.786;2023-02-01T14:19:20;87.47;;;68.00;;
58657;SDS011;44428;45.630;13.786;2023-02-01T14:24:25;93.88;;;73.80;;
58657;SDS011;44428;45.630;13.786;2023-02-01T14:26:53;98.97;;;75.45;;
58657;SDS011;44428;45.630;13.786;2023-02-01T14:31:52;105.53;;;79.15;;
58657;SDS011;44428;45.630;13.786;2023-02-01T14:34:29;107.05;;;76.95;;
58657;SDS011;44428;45.630;13.786;2023-02-01T14:39:28;101.90;;;78.45;;
58657;SDS011;44428;45.630;13.786;2023-02-01T14:42:05;101.25;;;71.68;;
58657;SDS011;44428;45.630;13.786;2023-02-01T14:47:38;102.25;;;71.03;;
58657;SDS011;44428;45.630;13.786;2023-02-01T14:52:36;102.85;;;70.97;;
58657;SDS011;44428;45.630;13.786;2023-02-01T14:55:18;101.53;;;73.82;;
58657;SDS011;44428;45.630;13.786;2023-02-01T14:57:53;100.47;;;71.95;;
58657;SDS011;44428;45.630;13.786;2023-02-01T15:00:29;98.63;;;72.63;;
58657;SDS011;44428;45.630;13.786;2023-02-01T15:03:15;99.22;;;72.25;;
58657;SDS011;44428;45.630;13.786;2023-02-01T15:05:57;103.88;;;71.90;;
58657;SDS011;44428;45.630;13.786;2023-02-01T15:08:30;104.22;;;73.80;;
58657;SDS011;44428;45.630;13.786;2023-02-01T15:10:59;101.68;;;72.22;;
58657;SDS011;44428;45.630;13.786;2023-02-01T15:13:29;104.50;;;71.53;;
58657;SDS011;44428;45.630;13.786;2023-02-01T15:18:28;106.63;;;72.88;;
58657;SDS011;44428;45.630;13.786;2023-02-01T15:21:00;103.55;;;71.78;;
58657;SDS011;44428;45.630;13.786;2023-02-01T15:23:28;103.40;;;73.28;;
58657;SDS011;44428;45.630;13.786;2023-02-01T15:25:54;110.18;;;75.53;;
58657;SDS011;44428;45.630;13.786;2023-02-01T15:28:21;109.53;;;74.03;;
58657;SDS011;44428;45.630;13.786;2023-02-01T15:33:27;100.63;;;72.00;;
58657;SDS011;44428;45.630;13.786;2023-02-01T15:35:55;99.90;;;70.40;;
58657;SDS011;44428;45.630;13.786;2023-02-01T15:38:35;95.78;;;69.05;;
58657;SDS011;44428;45.630;13.786;2023-02-01T15:41:13;100.60;;;69.72;;
58657;SDS011;44428;45.630;13.786;2023-02-01T15:43:44;94.93;;;67.78;;
58657;SDS011;44428;45.630;13.786;2023-02-01T15:46:14;98.47;;;65.93;;
58657;SDS011;44428;45.630;13.786;2023-02-01T15:48:46;103.25;;;69.68;;
58657;SDS011;44428;45.630;13.786;2023-02-01T15:51:16;98.25;;;69.90;;
58657;SDS011;44428;45.630;13.786;2023-02-01T15:53:55;93.25;;;64.40;;
58657;SDS011;44428;45.630;13.786;2023-02-01T15:56:36;100.43;;;69.32;;
58657;SDS011;44428;45.630;13.786;2023-02-01T15:59:06;94.10;;;65.53;;
58657;SDS011;44428;45.630;13.786;2023-02-01T16:01:40;93.47;;;64.72;;
58657;SDS011;44428;45.630;13.786;2023-02-01T16:06:44;101.38;;;69.43;;
58657;SDS011;44428;45.630;13.786;2023-02-01T16:09:12;94.75;;;65.57;;
58657;SDS011;44428;45.630;13.786;2023-02-01T16:14:14;92.53;;;66.00;;
58657;SDS011;44428;45.630;13.786;2023-02-01T16:16:40;95.20;;;65.65;;
58657;SDS011;44428;45.630;13.786;2023-02-01T16:19:06;93.90;;;63.97;;
58657;SDS011;44428;45.630;13.786;2023-02-01T16:21:31;94.47;;;65.55;;
58657;SDS011;44428;45.630;13.786;2023-02-01T16:23:57;88.85;;;63.25;;
58657;SDS011;44428;45.630;13.786;2023-02-01T16:26:24;90.93;;;62.65;;
58657;SDS011;44428;45.630;13.786;2023-02-01T16:28:50;88.32;;;61.45;;
58657;SDS011;44428;45.630;13.786;2023-02-01T16:31:17;88.97;;;60.80;;
58657;SDS011;44428;45.630;13.786;2023-02-01T16:33:46;92.80;;;63.22;;
58657;SDS011;44428;45.630;13.786;2023-02-01T16:36:16;90.87;;;61.23;;
58657;SDS011;44428;45.630;13.786;2023-02-01T16:38:42;87.60;;;60.40;;
58657;SDS011;44428;45.630;13.786;2023-02-01T16:41:18;92.13;;;61.72;;
58657;SDS011;44428;45.630;13.786;2023-02-01T16:43:44;91.75;;;62.05;;
58657;SDS011;44428;45.630;13.786;2023-02-01T16:46:12;90.55;;;60.85;;
58657;SDS011;44428;45.630;13.786;2023-02-01T16:48:41;89.53;;;59.08;;
58657;SDS011;44428;45.630;13.786;2023-02-01T16:51:12;93.80;;;62.73;;
58657;SDS011;44428;45.630;13.786;2023-02-01T16:53:39;88.03;;;60.70;;
58657;SDS011;44428;45.630;13.786;2023-02-01T16:56:10;90.72;;;60.67;;
58657;SDS011;44428;45.630;13.786;2023-02-01T16:58:39;87.38;;;60.80;;
58657;SDS011;44428;45.630;13.786;2023-02-01T17:01:06;89.70;;;60.58;;
58657;SDS011;44428;45.630;13.786;2023-02-01T17:03:32;88.97;;;61.28;;
58657;SDS011;44428;45.630;13.786;2023-02-01T17:05:57;90.53;;;61.38;;
58657;SDS011;44428;45.630;13.786;2023-02-01T17:08:27;88.97;;;60.55;;
58657;SDS011;44428;45.630;13.786;2023-02-01T17:10:58;97.53;;;63.28;;
58657;SDS011;44428;45.630;13.786;2023-02-01T17:13:24;90.97;;;60.95;;
58657;SDS011;44428;45.630;13.786;2023-02-01T17:15:53;94.78;;;64.13;;
58657;SDS011;44428;45.630;13.786;2023-02-01T17:18:23;96.47;;;62.40;;
58657;SDS011;44428;45.630;13.786;2023-02-01T17:20:50;92.18;;;62.45;;